Time;durP1;ratioP1;P1;durP2;ratioP2;P2;SDS_P1;SDS_P2;PMS_P1;PMS_P2;Temp;Humidity;BMP_temperature;BMP_pressure;BME280_temperature;BME280_humidity;BME280_pressure;Samples;Min_cycle;Max_cycle;Signal;HPM_P1;HPM_P2
2023/11/01 00:01:52;;;;;;;9.13;2.78;;;;;;;10.85;100.00;100324.47;6074144;19;20027;-70
2023/11/01 00:03:57;;;;;;;5.65;3.20;;;;;;;10.82;100.00;100324.63;6077776;19;20669;-70
2023/11/01 00:06:02;;;;;;;8.90;2.72;;;;;;;10.84;100.00;100329.78;6078556;19;20007;-71
2023/11/01 00:08:07;;;;;;;4.80;2.53;;;;;;;10.80;100.00;100329.09;6076997;19;20486;-70
2023/11/01 00:10:10;;;;;;;12.23;3.45;;;;;;;10.81;100.00;100322.06;6078791;19;20006;-69
2023/11/01 00:12:15;;;;;;;6.70;2.45;;;;;;;10.83;100.00;100313.16;6076881;19;20530;-69
2023/11/01 00:14:18;;;;;;;14.10;3.53;;;;;;;10.81;100.00;100312.38;6078581;19;20002;-70
2023/11/01 00:16:23;;;;;;;10.32;4.18;;;;;;;10.83;100.00;100309.69;6077507;19;20098;-71
2023/11/01 00:18:31;;;;;;;10.00;3.97;;;;;;;10.83;100.00;100305.28;6072172;19;20006;-71
2023/11/01 00:20:36;;;;;;;10.95;3.30;;;;;;;10.85;100.00;100302.56;6076112;19;20566;-71
2023/11/01 00:22:41;;;;;;;14.73;4.38;;;;;;;10.86;100.00;100302.50;6078731;19;20531;-70
2023/11/01 00:24:47;;;;;;;11.13;4.03;;;;;;;10.88;100.00;100302.44;6076952;19;20010;-70
2023/11/01 00:26:52;;;;;;;9.18;4.03;;;;;;;10.85;100.00;100298.19;6077286;19;20002;-70
2023/11/01 00:29:00;;;;;;;15.13;5.35;;;;;;;10.88;100.00;100303.28;6077022;19;20042;-71
2023/11/01 00:31:06;;;;;;;12.07;5.22;;;;;;;10.84;100.00;100299.09;6072400;19;20010;-71
2023/11/01 00:33:11;;;;;;;13.30;5.90;;;;;;;10.88;100.00;100298.03;6076725;19;20388;-70
2023/11/01 00:35:19;;;;;;;16.75;6.47;;;;;;;10.83;100.00;100299.19;6075890;19;20006;-70
2023/11/01 00:37:24;;;;;;;15.48;7.45;;;;;;;10.89;100.00;100302.34;6078554;19;20534;-70
2023/11/01 00:39:29;;;;;;;21.00;7.47;;;;;;;10.84;100.00;100299.09;6070576;19;20347;-70
2023/11/01 00:41:34;;;;;;;17.67;7.35;;;;;;;10.85;100.00;100289.41;6075707;19;20763;-69
2023/11/01 00:43:39;;;;;;;18.58;7.28;;;;;;;10.84;100.00;100295.63;6078846;19;20006;-70
2023/11/01 00:45:44;;;;;;;22.17;7.72;;;;;;;10.80;100.00;100302.81;6076565;19;20023;-71
2023/11/01 00:47:47;;;;;;;18.98;7.38;;;;;;;10.80;100.00;100300.19;6079674;19;20024;-72
2023/11/01 00:49:52;;;;;;;12.00;6.40;;;;;;;10.83;100.00;100294.78;6080493;19;20029;-70
2023/11/01 00:52:00;;;;;;;18.45;6.88;;;;;;;10.80;100.00;100292.31;6078727;19;20042;-71
2023/11/01 00:54:05;;;;;;;25.98;6.35;;;;;;;10.76;100.00;100290.75;6076925;19;20102;-72
2023/11/01 00:56:11;;;;;;;14.60;5.47;;;;;;;10.74;100.00;100287.34;6080266;19;20474;-71
2023/11/01 00:58:21;;;;;;;18.80;6.88;;;;;;;10.81;100.00;100286.09;6078067;19;20010;-71
2023/11/01 01:00:26;;;;;;;18.00;6.88;;;;;;;10.74;100.00;100288.22;6077163;19;20013;-70
2023/11/01 01:02:31;;;;;;;23.65;7.13;;;;;;;10.72;100.00;100281.31;6077591;19;19999;-70
2023/11/01 01:04:36;;;;;;;18.83;6.45;;;;;;;10.72;100.00;100283.97;6078273;19;20407;-70
2023/11/01 01:06:38;;;;;;;21.27;7.07;;;;;;;10.74;100.00;100289.97;6072202;19;20473;-70
2023/11/01 01:08:46;;;;;;;20.23;5.57;;;;;;;10.82;100.00;100284.31;6075970;19;20467;-70
2023/11/01 01:10:51;;;;;;;17.45;7.15;;;;;;;10.84;100.00;100280.69;6079517;19;20042;-70
2023/11/01 01:12:56;;;;;;;16.95;5.80;;;;;;;10.79;100.00;100282.69;6076645;19;20019;-70
2023/11/01 01:14:58;;;;;;;23.40;8.23;;;;;;;10.78;100.00;100270.50;6077257;19;20017;-70
2023/11/01 01:17:03;;;;;;;20.23;6.32;;;;;;;10.80;100.00;100273.91;6076988;19;20010;-71
2023/11/01 01:19:06;;;;;;;18.70;7.43;;;;;;;10.81;100.00;100265.09;6079167;19;20009;-70
2023/11/01 01:21:11;;;;;;;16.75;7.32;;;;;;;10.81;100.00;100261.59;6069309;19;20015;-70
2023/11/01 01:23:17;;;;;;;20.70;6.97;;;;;;;10.77;100.00;100256.50;6072890;19;20368;-71
2023/11/01 01:25:25;;;;;;;21.05;8.38;;;;;;;10.79;100.00;100251.16;6074426;19;20038;-70
2023/11/01 01:27:27;;;;;;;15.55;7.35;;;;;;;10.82;100.00;100250.16;6072643;19;20007;-70
2023/11/01 01:29:35;;;;;;;19.65;7.97;;;;;;;10.83;100.00;100246.63;6073828;19;20044;-70
2023/11/01 01:31:40;;;;;;;20.35;7.72;;;;;;;10.79;100.00;100245.06;6072778;19;20467;-70
2023/11/01 01:33:46;;;;;;;17.85;7.50;;;;;;;10.77;100.00;100237.28;6071040;19;20016;-70
2023/11/01 01:35:51;;;;;;;13.25;8.02;;;;;;;10.74;100.00;100235.66;6077117;19;20003;-70
2023/11/01 01:37:56;;;;;;;13.85;6.65;;;;;;;10.73;100.00;100228.66;6080204;19;20117;-70
2023/11/01 01:39:59;;;;;;;18.90;6.20;;;;;;;10.76;100.00;100232.94;6080847;19;20031;-71
2023/11/01 01:42:06;;;;;;;18.95;6.30;;;;;;;10.73;100.00;100230.47;6079692;19;20016;-70
2023/11/01 01:44:11;;;;;;;13.10;6.45;;;;;;;10.74;100.00;100224.25;6079615;19;20009;-70
2023/11/01 01:46:16;;;;;;;16.05;6.20;;;;;;;10.69;100.00;100224.53;6079339;19;19998;-71
2023/11/01 01:48:21;;;;;;;13.25;5.53;;;;;;;10.70;100.00;100222.72;6079839;19;20033;-70
2023/11/01 01:50:26;;;;;;;11.82;5.97;;;;;;;10.69;100.00;100218.38;6079707;19;20042;-70
2023/11/01 01:52:32;;;;;;;9.52;5.10;;;;;;;10.69;100.00;100211.38;6076112;19;20010;-70
2023/11/01 01:54:38;;;;;;;13.88;5.63;;;;;;;10.66;100.00;100213.28;6077581;19;20517;-72
2023/11/01 01:56:43;;;;;;;18.33;5.65;;;;;;;10.64;100.00;100199.41;6078929;19;20108;-70
2023/11/01 01:58:51;;;;;;;12.23;5.43;;;;;;;10.66;100.00;100197.53;6074913;19;20099;-70
2023/11/01 02:00:59;;;;;;;13.65;5.70;;;;;;;10.65;100.00;100185.31;6074639;19;20118;-70
2023/11/01 02:03:04;;;;;;;17.48;5.90;;;;;;;10.62;100.00;100190.75;6071858;19;20006;-71
2023/11/01 02:05:09;;;;;;;21.77;7.85;;;;;;;10.60;100.00;100187.34;6073951;19;20337;-71
2023/11/01 02:07:11;;;;;;;18.92;5.53;;;;;;;10.58;100.00;100183.94;6074643;19;20002;-71
2023/11/01 02:09:17;;;;;;;21.75;5.78;;;;;;;10.59;100.00;100183.03;6076740;19;20417;-70
2023/11/01 02:11:22;;;;;;;12.75;5.40;;;;;;;10.53;100.00;100185.03;6073474;19;20464;-70
2023/11/01 02:13:28;;;;;;;14.18;5.72;;;;;;;10.57;100.00;100177.00;6076713;19;19999;-70
2023/11/01 02:15:36;;;;;;;14.35;5.63;;;;;;;10.55;100.00;100175.28;6071643;19;20002;-70
2023/11/01 02:17:41;;;;;;;15.00;5.30;;;;;;;10.53;100.00;100161.41;6074755;19;20488;-70
2023/11/01 02:19:46;;;;;;;11.18;4.90;;;;;;;10.54;100.00;100173.59;6075317;19;20007;-70
2023/11/01 02:21:51;;;;;;;15.60;5.40;;;;;;;10.52;100.00;100170.19;6071716;19;20490;-71
2023/11/01 02:24:00;;;;;;;14.52;5.38;;;;;;;10.54;100.00;100160.44;6073452;19;20002;-71
2023/11/01 02:26:03;;;;;;;7.53;3.95;;;;;;;10.52;100.00;100162.31;6075422;19;20002;-70
2023/11/01 02:28:09;;;;;;;12.88;4.60;;;;;;;10.55;100.00;100153.41;6074715;19;20034;-70
2023/11/01 02:30:16;;;;;;;12.35;4.05;;;;;;;10.53;100.00;100156.13;6076264;19;20015;-70
2023/11/01 02:32:22;;;;;;;12.00;4.15;;;;;;;10.54;100.00;100154.34;6073398;19;20034;-71
2023/11/01 02:34:27;;;;;;;11.05;3.53;;;;;;;10.58;100.00;100152.41;6068049;19;20046;-71
2023/11/01 02:36:32;;;;;;;11.75;3.78;;;;;;;10.57;100.00;100151.56;6073294;19;20755;-71
2023/11/01 02:38:34;;;;;;;9.57;3.78;;;;;;;10.57;100.00;100150.72;6074345;19;20753;-71
2023/11/01 02:40:42;;;;;;;18.45;4.65;;;;;;;10.54;100.00;100139.44;6074322;19;20034;-71
2023/11/01 02:42:53;;;;;;;9.25;3.58;;;;;;;10.54;100.00;100143.84;6074254;19;20519;-72
2023/11/01 02:44:58;;;;;;;11.70;4.95;;;;;;;10.54;100.00;100134.19;6076359;19;20042;-70
2023/11/01 02:47:03;;;;;;;16.38;5.30;;;;;;;10.55;100.00;100129.78;6079728;19;20034;-71
2023/11/01 02:49:08;;;;;;;17.30;5.97;;;;;;;10.55;100.00;100135.88;6081224;19;20009;-70
2023/11/01 02:51:14;;;;;;;15.95;5.80;;;;;;;10.58;100.00;100126.97;6078938;19;20011;-70
2023/11/01 02:53:21;;;;;;;18.90;6.88;;;;;;;10.57;100.00;100133.19;6078439;19;20025;-72
2023/11/01 02:55:26;;;;;;;20.92;7.18;;;;;;;10.57;100.00;100121.81;6078625;19;20258;-71
2023/11/01 02:57:34;;;;;;;19.33;8.23;;;;;;;10.55;100.00;100120.09;6078869;19;20007;-70
2023/11/01 02:59:39;;;;;;;24.63;7.78;;;;;;;10.57;100.00;100121.81;6076463;19;20351;-71
2023/11/01 03:01:44;;;;;;;21.58;8.20;;;;;;;10.53;100.00;100122.00;6079823;19;20333;-72
2023/11/01 03:03:52;;;;;;;21.38;8.65;;;;;;;10.58;100.00;100126.13;6078307;19;20003;-70
2023/11/01 03:06:00;;;;;;;25.13;8.73;;;;;;;10.54;100.00;100120.19;6080866;19;20062;-71
2023/11/01 03:08:06;;;;;;;26.42;9.15;;;;;;;10.57;100.00;100116.56;6081224;19;20551;-71
2023/11/01 03:10:12;;;;;;;28.00;9.55;;;;;;;10.59;100.00;100117.34;6077941;19;20107;-71
2023/11/01 03:12:18;;;;;;;26.75;9.50;;;;;;;10.61;100.00;100115.47;6080353;19;20597;-70
2023/11/01 03:14:26;;;;;;;25.38;11.05;;;;;;;10.61;100.00;100121.59;6081325;19;20566;-70
2023/11/01 03:16:29;;;;;;;31.88;10.68;;;;;;;10.63;100.00;100111.81;6076924;19;20634;-70
2023/11/01 03:18:35;;;;;;;28.40;10.35;;;;;;;10.62;100.00;100109.31;6075373;19;20510;-70
2023/11/01 03:20:41;;;;;;;35.22;11.45;;;;;;;10.61;100.00;100110.22;6078429;19;20069;-70
2023/11/01 03:22:46;;;;;;;28.13;10.57;;;;;;;10.59;100.00;100102.44;6077718;19;20606;-73
2023/11/01 03:24:48;;;;;;;30.38;10.57;;;;;;;10.59;100.00;100105.06;6079195;19;20013;-70
2023/11/01 03:26:54;;;;;;;30.45;10.88;;;;;;;10.57;100.00;100095.56;6079087;19;20006;-70
2023/11/01 03:28:59;;;;;;;26.33;10.75;;;;;;;10.57;100.00;100099.03;6079195;19;20028;-69
2023/11/01 03:31:07;;;;;;;33.30;11.13;;;;;;;10.58;100.00;100094.63;6078353;19;20006;-70
2023/11/01 03:33:12;;;;;;;22.80;10.68;;;;;;;10.57;100.00;100099.03;6079428;19;20030;-70
2023/11/01 03:35:18;;;;;;;31.92;10.77;;;;;;;10.59;100.00;100094.53;6074333;19;20006;-70
2023/11/01 03:37:20;;;;;;;23.73;10.45;;;;;;;10.57;100.00;100082.41;6079478;19;21317;-70
2023/11/01 03:39:25;;;;;;;24.17;9.45;;;;;;;10.55;100.00;100091.22;6078666;19;20014;-70
2023/11/01 03:41:30;;;;;;;25.85;11.70;;;;;;;10.53;100.00;100082.59;6078824;19;20360;-70
2023/11/01 03:43:35;;;;;;;24.15;10.30;;;;;;;10.53;100.00;100079.97;6077949;19;20006;-71
2023/11/01 03:45:40;;;;;;;22.70;10.02;;;;;;;10.50;100.00;100071.38;6078279;19;20372;-70
2023/11/01 03:47:48;;;;;;;23.48;9.25;;;;;;;10.52;100.00;100067.72;6077353;19;20002;-71
2023/11/01 03:49:53;;;;;;;18.33;8.20;;;;;;;10.57;100.00;100072.75;6078470;19;20003;-70
2023/11/01 03:51:59;;;;;;;20.80;7.97;;;;;;;10.55;100.00;100074.59;6076843;19;20007;-70
2023/11/01 03:54:04;;;;;;;19.77;8.15;;;;;;;10.53;100.00;100066.81;6069965;19;20426;-70
2023/11/01 03:56:11;;;;;;;21.30;8.63;;;;;;;10.53;100.00;100068.56;6071946;19;20514;-69
2023/11/01 03:58:16;;;;;;;24.30;7.43;;;;;;;10.50;100.00;100071.38;6077264;19;20026;-71
2023/11/01 04:00:21;;;;;;;17.23;6.35;;;;;;;10.52;100.00;100065.09;6067557;19;20504;-71
2023/11/01 04:02:26;;;;;;;13.43;6.38;;;;;;;10.50;100.00;100066.97;6074446;19;20054;-70
2023/11/01 04:04:34;;;;;;;14.93;6.50;;;;;;;10.54;100.00;100065.03;6080613;19;20073;-71
2023/11/01 04:06:39;;;;;;;16.20;6.38;;;;;;;10.56;100.00;100071.06;6072825;19;20011;-70
2023/11/01 04:08:44;;;;;;;17.10;6.43;;;;;;;10.56;100.00;100055.31;6075488;19;20376;-70
2023/11/01 04:10:49;;;;;;;21.55;6.90;;;;;;;10.57;100.00;100062.25;6074158;19;20458;-70
2023/11/01 04:12:54;;;;;;;17.55;6.05;;;;;;;10.63;100.00;100056.66;6074791;19;20006;-70
2023/11/01 04:14:57;;;;;;;16.23;6.25;;;;;;;10.62;100.00;100048.88;6075867;19;20010;-70
2023/11/01 04:17:02;;;;;;;15.40;7.22;;;;;;;10.66;100.00;100050.38;6074559;19;20003;-71
2023/11/01 04:19:05;;;;;;;16.63;6.22;;;;;;;10.75;100.00;100058.63;6075431;19;20524;-71
2023/11/01 04:21:12;;;;;;;16.70;6.57;;;;;;;10.73;100.00;100052.59;6076084;19;20786;-70
2023/11/01 04:23:20;;;;;;;20.13;7.60;;;;;;;10.75;100.00;100045.50;6075990;19;20479;-71
2023/11/01 04:25:26;;;;;;;22.05;9.15;;;;;;;10.77;100.00;100048.06;6075012;19;20014;-71
2023/11/01 04:27:29;;;;;;;18.45;7.40;;;;;;;10.76;100.00;100043.72;6075470;19;20010;-70
2023/11/01 04:29:34;;;;;;;27.40;10.18;;;;;;;10.76;100.00;100047.19;6076261;19;20325;-71
2023/11/01 04:31:39;;;;;;;25.60;9.30;;;;;;;10.82;100.00;100039.91;6076427;19;20011;-70
2023/11/01 04:33:41;;;;;;;21.13;8.63;;;;;;;10.85;100.00;100042.34;6076693;19;20010;-71
2023/11/01 04:35:47;;;;;;;23.30;10.38;;;;;;;10.84;100.00;100049.41;6070242;19;20053;-72
2023/11/01 04:37:54;;;;;;;20.48;8.70;;;;;;;10.88;100.00;100050.94;6074389;19;20251;-70
2023/11/01 04:40:00;;;;;;;26.70;11.15;;;;;;;10.90;100.00;100037.69;6073326;19;20467;-70
2023/11/01 04:42:08;;;;;;;21.48;9.07;;;;;;;10.89;100.00;100044.75;6071218;19;20329;-69
2023/11/01 04:44:13;;;;;;;28.80;10.20;;;;;;;10.94;100.00;100040.06;6075485;19;20463;-70
2023/11/01 04:46:18;;;;;;;22.38;9.48;;;;;;;10.94;100.00;100034.81;6075331;19;20479;-70
2023/11/01 04:48:23;;;;;;;22.77;9.52;;;;;;;10.97;100.00;100037.28;6073011;19;20017;-70
2023/11/01 04:50:28;;;;;;;24.70;9.80;;;;;;;11.02;100.00;100036.19;6073403;19;20014;-70
2023/11/01 04:52:31;;;;;;;26.45;9.30;;;;;;;11.06;100.00;100025.44;6074545;19;20090;-70
2023/11/01 04:54:39;;;;;;;19.00;8.52;;;;;;;11.05;100.00;100026.34;6075595;19;20876;-70
2023/11/01 04:56:44;;;;;;;20.30;8.60;;;;;;;11.10;100.00;100024.31;6070232;19;21439;-70
2023/11/01 04:58:49;;;;;;;25.92;9.27;;;;;;;11.10;100.00;100026.09;6075516;19;20034;-70
2023/11/01 05:00:52;;;;;;;20.67;8.02;;;;;;;11.11;100.00;100019.88;6067166;19;20006;-71
2023/11/01 05:02:58;;;;;;;17.77;7.32;;;;;;;11.18;100.00;100010.72;6072637;19;20046;-71
2023/11/01 05:05:05;;;;;;;14.73;6.72;;;;;;;11.21;100.00;100016.66;6071754;19;20395;-70
2023/11/01 05:07:11;;;;;;;15.32;6.50;;;;;;;11.24;100.00;100020.91;6067311;19;20417;-71
2023/11/01 05:09:16;;;;;;;13.00;6.40;;;;;;;11.31;100.00;100011.72;6075278;19;20471;-70
2023/11/01 05:11:24;;;;;;;17.15;6.50;;;;;;;11.33;100.00;100020.38;6075945;19;20080;-70
2023/11/01 05:13:26;;;;;;;15.60;7.35;;;;;;;11.34;100.00;100011.56;6073210;19;20269;-71
2023/11/01 05:15:31;;;;;;;14.75;6.55;;;;;;;11.39;100.00;100012.13;6071083;19;20414;-71
2023/11/01 05:17:36;;;;;;;22.38;6.95;;;;;;;11.43;100.00;100011.03;6073117;19;20011;-71
2023/11/01 05:19:41;;;;;;;18.05;5.68;;;;;;;11.53;100.00;100007.88;6073595;19;20102;-71
2023/11/01 05:21:46;;;;;;;11.75;5.53;;;;;;;11.49;100.00;100003.75;6073468;19;21261;-71
2023/11/01 05:23:52;;;;;;;13.93;5.88;;;;;;;11.52;100.00;100000.91;6075255;19;20023;-70
2023/11/01 05:25:57;;;;;;;16.25;6.53;;;;;;;11.52;100.00;99993.03;6073688;19;20102;-70
2023/11/01 05:28:05;;;;;;;21.90;6.78;;;;;;;11.51;100.00;99994.81;6074042;19;20018;-70
2023/11/01 05:30:14;;;;;;;18.33;6.55;;;;;;;11.54;100.00;99999.06;6072795;19;20177;-71
2023/11/01 05:32:22;;;;;;;17.58;6.72;;;;;;;11.57;100.00;99996.25;6068497;19;20297;-71
2023/11/01 05:34:27;;;;;;;18.42;6.38;;;;;;;11.55;100.00;99995.47;6071214;19;20442;-71
2023/11/01 05:36:33;;;;;;;15.80;5.90;;;;;;;11.57;100.00;99993.59;6073011;19;20509;-71
2023/11/01 05:38:36;;;;;;;19.75;5.80;;;;;;;11.59;100.00;99994.38;6074268;19;20541;-71
2023/11/01 05:40:41;;;;;;;24.77;8.48;;;;;;;11.59;100.00;99991.75;6078098;19;20387;-71
2023/11/01 05:42:48;;;;;;;14.13;5.85;;;;;;;11.61;100.00;99989.84;6077373;19;20028;-72
2023/11/01 05:44:56;;;;;;;18.48;6.63;;;;;;;11.64;100.00;99989.69;6078456;19;20573;-71
2023/11/01 05:47:02;;;;;;;24.80;7.07;;;;;;;11.64;100.00;99992.31;6077956;19;20471;-71
2023/11/01 05:49:08;;;;;;;19.73;5.47;;;;;;;11.62;100.00;99988.94;6076359;19;20038;-70
2023/11/01 05:51:13;;;;;;;16.25;5.38;;;;;;;11.62;100.00;99991.56;6076766;19;20456;-70
2023/11/01 05:53:18;;;;;;;13.07;5.57;;;;;;;11.62;100.00;99983.66;6074836;19;20013;-71
2023/11/01 05:55:24;;;;;;;18.23;5.82;;;;;;;11.63;100.00;99990.59;6074600;19;20409;-72
2023/11/01 05:57:41;;;;;;;13.65;4.93;;;;;;;11.66;100.00;99987.78;6075976;19;20003;-71
2023/11/01 05:59:47;;;;;;;14.50;5.10;;;;;;;11.64;100.00;99981.81;6072617;19;20002;-72
2023/11/01 06:01:55;;;;;;;17.42;5.20;;;;;;;11.63;100.00;99986.19;6076016;19;20018;-72
2023/11/01 06:04:00;;;;;;;13.75;4.57;;;;;;;11.66;100.00;99979.91;6074812;19;20668;-72
2023/11/01 06:06:08;;;;;;;17.13;4.88;;;;;;;11.63;100.00;99972.19;6076790;19;20070;-71
2023/11/01 06:08:13;;;;;;;14.63;4.88;;;;;;;11.67;100.00;99983.41;6068647;19;20007;-72
2023/11/01 06:10:18;;;;;;;18.08;6.00;;;;;;;11.64;100.00;99971.28;6073528;19;19998;-71
2023/11/01 06:12:23;;;;;;;12.23;5.10;;;;;;;11.67;100.00;99978.97;6073118;19;20479;-71
2023/11/01 06:14:29;;;;;;;12.05;3.95;;;;;;;11.67;100.00;99975.50;6077336;19;19998;-71
2023/11/01 06:16:34;;;;;;;14.80;4.47;;;;;;;11.58;100.00;99977.72;6073180;19;20607;-71
2023/11/01 06:18:42;;;;;;;17.70;4.63;;;;;;;11.62;100.00;99983.66;6070547;19;20002;-71
2023/11/01 06:20:50;;;;;;;13.30;4.68;;;;;;;11.68;100.00;99978.03;5988098;19;2004945;-71
2023/11/01 06:22:55;;;;;;;16.02;4.82;;;;;;;11.66;100.00;99979.91;6072772;19;20010;-72
2023/11/01 06:25:01;;;;;;;13.68;4.38;;;;;;;11.63;100.00;99974.81;6066211;19;20006;-72
2023/11/01 06:27:06;;;;;;;12.38;4.05;;;;;;;11.63;100.00;99975.66;6073103;19;20010;-71
2023/11/01 06:29:11;;;;;;;14.50;4.78;;;;;;;11.67;100.00;99971.09;6072138;19;20158;-71
2023/11/01 06:31:21;;;;;;;17.00;4.93;;;;;;;11.61;100.00;99972.28;6072996;19;20019;-71
2023/11/01 06:33:26;;;;;;;21.70;4.38;;;;;;;11.64;100.00;99981.81;6073167;19;20008;-72
2023/11/01 06:35:34;;;;;;;12.85;4.28;;;;;;;11.64;100.00;99966.84;6071027;19;20014;-72
2023/11/01 06:37:39;;;;;;;12.48;4.00;;;;;;;11.67;100.00;99970.25;6075410;19;20014;-72
2023/11/01 06:39:45;;;;;;;14.48;4.70;;;;;;;11.65;100.00;99968.53;6071087;19;20015;-71
2023/11/01 06:41:50;;;;;;;17.63;4.70;;;;;;;11.64;100.00;99966.84;6076105;19;20046;-71
2023/11/01 06:43:55;;;;;;;11.80;4.28;;;;;;;11.64;100.00;99966.84;6075172;19;20014;-71
2023/11/01 06:49:45;;;;;;;14.77;4.97;;;;;;;11.63;100.00;99975.66;5968051;19;2004745;-73
2023/11/01 06:51:52;;;;;;;13.73;4.20;;;;;;;11.64;100.00;99972.13;6070307;19;20972;-71
2023/11/01 06:53:58;;;;;;;17.13;4.82;;;;;;;11.61;100.00;99969.66;6071542;19;20036;-71
2023/11/01 06:56:03;;;;;;;11.48;3.97;;;;;;;11.59;100.00;99962.81;6067899;19;20037;-71
2023/11/01 06:58:08;;;;;;;18.20;3.97;;;;;;;11.60;100.00;99961.84;6071313;19;20014;-72
2023/11/01 07:00:17;;;;;;;10.48;4.05;;;;;;;11.63;100.00;99964.28;6073259;19;20112;-72
2023/11/01 07:02:24;;;;;;;16.25;4.70;;;;;;;11.63;100.00;99969.56;6073088;19;20002;-71
2023/11/01 07:04:29;;;;;;;18.55;4.90;;;;;;;11.60;100.00;99965.31;6072962;19;20973;-71
2023/11/01 07:06:35;;;;;;;10.85;4.35;;;;;;;11.58;100.00;99961.94;6071473;19;20086;-71
2023/11/01 07:08:46;;;;;;;17.83;4.57;;;;;;;11.60;100.00;99967.94;6065662;19;20300;-71
2023/11/01 07:10:49;;;;;;;10.85;3.45;;;;;;;11.63;100.00;99974.81;6070836;19;20086;-72
2023/11/01 07:12:54;;;;;;;14.73;3.88;;;;;;;11.60;100.00;99970.59;6071345;19;20530;-72
2023/11/01 07:14:59;;;;;;;16.60;4.60;;;;;;;11.65;100.00;99971.16;6073088;19;20542;-71
2023/11/01 07:17:04;;;;;;;18.45;4.60;;;;;;;11.65;100.00;99967.69;6071455;19;20007;-72
2023/11/01 07:19:09;;;;;;;16.42;3.95;;;;;;;11.68;100.00;99966.66;6072224;19;20031;-72
2023/11/01 07:21:15;;;;;;;17.13;4.78;;;;;;;11.66;100.00;99974.63;6074509;19;20030;-72
2023/11/01 07:23:20;;;;;;;17.63;4.60;;;;;;;11.65;100.00;99968.53;6070187;19;20098;-72
2023/11/01 07:25:37;;;;;;;20.75;4.57;;;;;;;11.67;100.00;99968.47;6072387;19;20006;-71
2023/11/01 07:27:42;;;;;;;19.02;5.10;;;;;;;11.73;100.00;99968.09;6069760;19;20018;-72
2023/11/01 07:29:49;;;;;;;15.85;4.38;;;;;;;11.73;100.00;99972.50;6073986;19;20034;-73
2023/11/01 07:31:52;;;;;;;14.55;4.72;;;;;;;11.68;100.00;99969.28;6080902;19;20106;-72
2023/11/01 07:33:57;;;;;;;11.35;4.03;;;;;;;11.72;100.00;99962.94;6081521;19;20527;-72
2023/11/01 07:36:05;;;;;;;13.73;4.55;;;;;;;11.70;100.00;99970.91;6078069;19;20047;-72
2023/11/01 07:38:10;;;;;;;13.05;4.07;;;;;;;11.74;100.00;99961.91;6081201;19;20023;-71
2023/11/01 07:40:18;;;;;;;18.70;4.45;;;;;;;11.74;100.00;99956.63;6074855;19;20003;-73
2023/11/01 07:42:31;;;;;;;20.67;5.57;;;;;;;11.76;100.00;99957.38;6080233;19;20002;-71
2023/11/01 07:44:36;;;;;;;14.15;4.47;;;;;;;11.77;100.00;99953.81;6076882;19;20010;-71
2023/11/01 07:46:42;;;;;;;9.45;3.97;;;;;;;11.79;100.00;99943.19;6081258;19;20009;-71
2023/11/01 07:48:50;;;;;;;18.73;4.68;;;;;;;11.81;100.00;99951.84;6077816;19;20121;-73
2023/11/01 07:50:55;;;;;;;12.85;4.00;;;;;;;11.82;100.00;99949.13;6077020;19;20010;-73
2023/11/01 07:53:00;;;;;;;18.95;5.03;;;;;;;11.82;100.00;99938.59;6074974;19;20023;-71
2023/11/01 07:55:06;;;;;;;18.17;4.25;;;;;;;11.83;100.00;99945.53;6079772;19;20003;-71
2023/11/01 07:57:11;;;;;;;15.18;4.22;;;;;;;11.87;100.00;99940.97;6078164;19;20003;-73
2023/11/01 07:59:18;;;;;;;17.75;4.45;;;;;;;11.88;100.00;99940.03;6075979;19;20074;-71
2023/11/01 08:01:21;;;;;;;10.25;3.53;;;;;;;11.92;100.00;99933.63;6073223;19;20007;-71
2023/11/01 08:03:26;;;;;;;8.50;3.58;;;;;;;11.96;100.00;99934.31;6076602;19;19999;-72
2023/11/01 08:05:32;;;;;;;20.42;5.20;;;;;;;11.92;100.00;99932.78;6075425;19;20003;-71
2023/11/01 08:07:37;;;;;;;11.23;3.92;;;;;;;11.99;100.00;99937.59;6071974;19;20415;-71
2023/11/01 08:09:42;;;;;;;14.15;3.67;;;;;;;11.95;100.00;99938.72;6073930;19;20130;-70
2023/11/01 08:11:47;;;;;;;14.20;3.85;;;;;;;11.91;100.00;99934.59;6080546;19;20031;-71
2023/11/01 08:13:52;;;;;;;11.93;3.78;;;;;;;12.01;100.00;99937.50;6074880;19;20002;-71
2023/11/01 08:15:59;;;;;;;17.67;3.92;;;;;;;11.99;100.00;99934.97;6075973;19;20007;-70
2023/11/01 08:18:05;;;;;;;18.60;3.80;;;;;;;12.02;100.00;99929.50;6076166;19;20022;-71
2023/11/01 08:20:11;;;;;;;11.82;3.63;;;;;;;12.02;100.00;99924.25;6076176;19;20478;-71
2023/11/01 08:22:15;;;;;;;22.67;4.53;;;;;;;12.03;100.00;99923.31;6077236;19;20680;-72
2023/11/01 08:24:20;;;;;;;16.92;3.38;;;;;;;12.08;100.00;99920.38;6077047;19;20037;-71
2023/11/01 08:26:26;;;;;;;16.52;3.72;;;;;;;12.07;100.00;99923.97;6078082;19;20038;-71
2023/11/01 08:28:31;;;;;;;12.73;3.40;;;;;;;12.10;100.00;99918.50;6069763;19;20011;-71
2023/11/01 08:30:33;;;;;;;17.52;4.10;;;;;;;12.11;100.00;99914.91;6074544;19;20338;-71
2023/11/01 08:32:41;;;;;;;9.73;3.65;;;;;;;12.15;100.00;99902.44;6075083;19;20003;-71
2023/11/01 08:34:46;;;;;;;13.90;3.85;;;;;;;12.20;100.00;99905.63;6076539;19;20011;-72
2023/11/01 08:36:48;;;;;;;8.93;3.53;;;;;;;12.18;100.00;99910.97;6072399;19;20254;-71
2023/11/01 08:38:53;;;;;;;10.15;3.60;;;;;;;12.24;100.00;99902.72;6075810;19;20003;-71
2023/11/01 08:41:00;;;;;;;9.40;3.75;;;;;;;12.28;100.00;99903.34;6076741;19;20447;-71
2023/11/01 08:43:05;;;;;;;13.90;3.58;;;;;;;12.26;100.00;99906.06;6072750;19;20476;-70
2023/11/01 08:45:11;;;;;;;14.02;4.07;;;;;;;12.24;100.00;99910.63;6074021;19;20094;-71
2023/11/01 08:47:34;;;;;;;17.50;3.85;;;;;;;12.29;100.00;99897.97;6075339;19;20526;-71
2023/11/01 08:49:42;;;;;;;9.65;3.03;;;;;;;12.31;100.00;99900.53;6074481;19;20322;-71
2023/11/01 08:51:48;;;;;;;15.38;3.80;;;;;;;12.35;100.00;99898.53;6066705;19;20106;-71
2023/11/01 08:53:53;;;;;;;11.07;3.55;;;;;;;12.35;100.00;99894.13;6077659;19;20086;-72
2023/11/01 08:55:59;;;;;;;15.90;3.50;;;;;;;12.36;100.00;99887.91;6075481;19;20712;-72
2023/11/01 08:58:04;;;;;;;15.95;4.30;;;;;;;12.38;100.00;99891.28;6071641;19;20098;-71
2023/11/01 09:00:12;;;;;;;11.00;3.80;;;;;;;12.42;100.00;99899.84;6072443;19;20201;-71
2023/11/01 09:02:19;;;;;;;12.93;3.78;;;;;;;12.48;100.00;99886.28;6072190;19;20014;-71
2023/11/01 09:04:24;;;;;;;10.05;3.75;;;;;;;12.52;100.00;99893.88;6076402;19;20010;-72
2023/11/01 09:06:34;;;;;;;12.85;3.53;;;;;;;12.60;100.00;99895.19;6075059;19;20029;-71
2023/11/01 09:08:39;;;;;;;10.95;3.35;;;;;;;12.69;100.00;99882.28;6075409;19;20010;-71
2023/11/01 09:10:44;;;;;;;16.55;4.03;;;;;;;12.72;100.00;99887.34;6073706;19;20707;-70
2023/11/01 09:12:49;;;;;;;14.07;3.72;;;;;;;12.71;100.00;99887.44;6073212;19;20007;-71
2023/11/01 09:14:54;;;;;;;16.30;3.90;;;;;;;12.67;100.00;99878.91;6069763;19;20010;-70
2023/11/01 09:16:59;;;;;;;11.10;3.78;;;;;;;12.71;100.00;99879.53;6070656;19;20550;-71
2023/11/01 09:19:04;;;;;;;13.23;3.78;;;;;;;12.74;100.00;99874.94;6070012;19;20011;-71
2023/11/01 09:21:09;;;;;;;15.25;4.30;;;;;;;12.74;100.00;99874.94;6070052;19;20007;-71
2023/11/01 09:23:17;;;;;;;18.33;3.97;;;;;;;12.74;100.00;99884.59;6070941;19;20007;-71
2023/11/01 09:25:21;;;;;;;16.60;3.95;;;;;;;12.73;100.00;99889.03;6072467;19;20023;-72
2023/11/01 09:27:24;;;;;;;14.93;3.47;;;;;;;12.74;100.00;99872.28;6073223;19;20351;-72
2023/11/01 09:29:29;;;;;;;9.60;3.00;;;;;;;12.74;100.00;99882.84;6072535;19;20011;-70
2023/11/01 09:31:37;;;;;;;8.88;3.38;;;;;;;12.78;100.00;99875.56;6072719;19;20007;-70
2023/11/01 09:33:48;;;;;;;15.63;3.55;;;;;;;12.81;100.00;99875.34;6072470;19;20543;-70
2023/11/01 09:35:54;;;;;;;13.77;3.47;;;;;;;12.89;100.00;99866.94;6068804;19;20014;-70
2023/11/01 09:37:59;;;;;;;9.02;2.65;;;;;;;12.86;100.00;99864.50;6067890;19;20014;-69